sensor_id;sensor_type;location;lat;lon;timestamp;pressure;altitude;pressure_sealevel;temperature;humidity
32298;BME280;18782;48.984;8.548;2023-04-26T00:01:40;100067.81;;;7.03;100.00
32298;BME280;18782;48.984;8.548;2023-04-26T00:04:07;100062.69;;;7.03;100.00
32298;BME280;18782;48.984;8.548;2023-04-26T00:06:37;100074.63;;;7.03;100.00
32298;BME280;18782;48.984;8.548;2023-04-26T00:09:04;100069.53;;;7.04;100.00
32298;BME280;18782;48.984;8.548;2023-04-26T00:11:33;100068.56;;;7.01;100.00
32298;BME280;18782;48.984;8.548;2023-04-26T00:14:00;100074.31;;;6.95;100.00
32298;BME280;18782;48.984;8.548;2023-04-26T00:16:28;100065.81;;;6.96;100.00
32298;BME280;18782;48.984;8.548;2023-04-26T00:18:56;100070.13;;;6.97;100.00
32298;BME280;18782;48.984;8.548;2023-04-26T00:21:23;100068.44;;;6.98;100.00
32298;BME280;18782;48.984;8.548;2023-04-26T00:23:53;100069.31;;;6.98;100.00
32298;BME280;18782;48.984;8.548;2023-04-26T00:26:21;100067.69;;;7.00;100.00
32298;BME280;18782;48.984;8.548;2023-04-26T00:28:48;100070.94;;;6.96;100.00
32298;BME280;18782;48.984;8.548;2023-04-26T00:31:16;100060.47;;;6.90;100.00
32298;BME280;18782;48.984;8.548;2023-04-26T00:33:44;100064.50;;;6.85;100.00
32298;BME280;18782;48.984;8.548;2023-04-26T00:36:12;100066.94;;;6.82;100.00
32298;BME280;18782;48.984;8.548;2023-04-26T00:38:40;100070.06;;;6.75;100.00
32298;BME280;18782;48.984;8.548;2023-04-26T00:41:09;100063.31;;;6.77;100.00
32298;BME280;18782;48.984;8.548;2023-04-26T00:43:37;100060.81;;;6.78;100.00
32298;BME280;18782;48.984;8.548;2023-04-26T00:46:05;100066.94;;;6.82;100.00
32298;BME280;18782;48.984;8.548;2023-04-26T00:48:33;100066.94;;;6.82;100.00
32298;BME280;18782;48.984;8.548;2023-04-26T00:51:03;100066.81;;;6.79;100.00
32298;BME280;18782;48.984;8.548;2023-04-26T00:53:31;100066.06;;;6.82;100.00
32298;BME280;18782;48.984;8.548;2023-04-26T00:55:59;100067.59;;;6.78;100.00
32298;BME280;18782;48.984;8.548;2023-04-26T00:58:29;100066.88;;;6.80;100.00
32298;BME280;18782;48.984;8.548;2023-04-26T01:00:57;100062.88;;;6.87;100.00
32298;BME280;18782;48.984;8.548;2023-04-26T01:03:25;100064.72;;;6.90;100.00
32298;BME280;18782;48.984;8.548;2023-04-26T01:05:53;100068.81;;;6.86;100.00
32298;BME280;18782;48.984;8.548;2023-04-26T01:08:22;100067.19;;;6.88;100.00
32298;BME280;18782;48.984;8.548;2023-04-26T01:10:50;100059.63;;;6.91;100.00
32298;BME280;18782;48.984;8.548;2023-04-26T01:13:19;100067.19;;;6.88;100.00
32298;BME280;18782;48.984;8.548;2023-04-26T01:15:48;100058.56;;;6.86;100.00
32298;BME280;18782;48.984;8.548;2023-04-26T01:18:16;100060.22;;;6.84;100.00
32298;BME280;18782;48.984;8.548;2023-04-26T01:20:44;100057.56;;;6.83;100.00
32298;BME280;18782;48.984;8.548;2023-04-26T01:23:13;100065.19;;;6.81;100.00
32298;BME280;18782;48.984;8.548;2023-04-26T01:25:42;100063.56;;;6.83;100.00
32298;BME280;18782;48.984;8.548;2023-04-26T01:28:09;100061.94;;;6.85;100.00
32298;BME280;18782;48.984;8.548;2023-04-26T01:34:37;100058.72;;;6.89;100.00
32298;BME280;18782;48.984;8.548;2023-04-26T01:37:04;100058.81;;;6.92;100.00
32298;BME280;18782;48.984;8.548;2023-04-26T01:39:35;100055.44;;;6.93;100.00
32298;BME280;18782;48.984;8.548;2023-04-26T01:42:03;100050.31;;;6.93;100.00
32298;BME280;18782;48.984;8.548;2023-04-26T01:44:31;100056.44;;;6.97;100.00
32298;BME280;18782;48.984;8.548;2023-04-26T01:47:00;100047.09;;;6.97;100.00
32298;BME280;18782;48.984;8.548;2023-04-26T01:49:27;100052.19;;;6.97;100.00
32298;BME280;18782;48.984;8.548;2023-04-26T01:51:55;100048.00;;;6.99;100.00
32298;BME280;18782;48.984;8.548;2023-04-26T01:54:23;100049.06;;;7.04;100.00
32298;BME280;18782;48.984;8.548;2023-04-26T01:56:53;100053.13;;;6.99;100.00
32298;BME280;18782;48.984;8.548;2023-04-26T01:59:20;100054.03;;;7.00;100.00
32298;BME280;18782;48.984;8.548;2023-04-26T02:01:48;100054.09;;;7.01;100.00
32298;BME280;18782;48.984;8.548;2023-04-26T02:04:16;100059.31;;;7.04;100.00
32298;BME280;18782;48.984;8.548;2023-04-26T02:06:43;100058.56;;;7.07;100.00
32298;BME280;18782;48.984;8.548;2023-04-26T02:09:11;100059.69;;;7.14;100.00
32298;BME280;18782;48.984;8.548;2023-04-26T02:11:39;100066.44;;;7.12;100.00
32298;BME280;18782;48.984;8.548;2023-04-26T02:14:08;100064.69;;;7.11;100.00
32298;BME280;18782;48.984;8.548;2023-04-26T02:16:35;100060.56;;;7.14;100.00
32298;BME280;18782;48.984;8.548;2023-04-26T02:19:05;100065.56;;;7.11;100.00
32298;BME280;18782;48.984;8.548;2023-04-26T02:21:53;100065.38;;;7.06;100.00
32298;BME280;18782;48.984;8.548;2023-04-26T02:24:21;100059.44;;;7.07;100.00
32298;BME280;18782;48.984;8.548;2023-04-26T02:26:49;100064.56;;;7.07;100.00
32298;BME280;18782;48.984;8.548;2023-04-26T02:29:19;100066.19;;;7.05;100.00
32298;BME280;18782;48.984;8.548;2023-04-26T02:32:05;100063.31;;;6.98;100.00
32298;BME280;18782;48.984;8.548;2023-04-26T02:34:33;100061.13;;;6.86;100.00
32298;BME280;18782;48.984;8.548;2023-04-26T02:37:01;100062.69;;;6.83;100.00
32298;BME280;18782;48.984;8.548;2023-04-26T02:39:29;100065.19;;;6.81;100.00
32298;BME280;18782;48.984;8.548;2023-04-26T02:41:57;100065.34;;;6.84;100.00
32298;BME280;18782;48.984;8.548;2023-04-26T02:44:29;100067.19;;;6.88;100.00
32298;BME280;18782;48.984;8.548;2023-04-26T02:46:57;100065.56;;;6.90;100.00
32298;BME280;18782;48.984;8.548;2023-04-26T02:49:25;100062.25;;;6.93;100.00
32298;BME280;18782;48.984;8.548;2023-04-26T02:51:52;100069.19;;;6.95;100.00
32298;BME280;18782;48.984;8.548;2023-04-26T02:54:20;100067.56;;;6.97;100.00
32298;BME280;18782;48.984;8.548;2023-04-26T02:56:48;100071.03;;;6.99;100.00
32298;BME280;18782;48.984;8.548;2023-04-26T02:59:15;100070.25;;;7.00;100.00
32298;BME280;18782;48.984;8.548;2023-04-26T03:01:45;100072.88;;;7.02;100.00
32298;BME280;18782;48.984;8.548;2023-04-26T03:04:13;100082.28;;;7.03;100.00
32298;BME280;18782;48.984;8.548;2023-04-26T03:06:43;100073.78;;;7.04;100.00
32298;BME280;18782;48.984;8.548;2023-04-26T03:09:10;100070.38;;;7.03;100.00
32298;BME280;18782;48.984;8.548;2023-04-26T03:11:38;100065.13;;;7.00;100.00
32298;BME280;18782;48.984;8.548;2023-04-26T03:14:06;100066.94;;;7.03;100.00
32298;BME280;18782;48.984;8.548;2023-04-26T03:16:39;100067.81;;;7.03;100.00
32298;BME280;18782;48.984;8.548;2023-04-26T03:19:08;100066.97;;;7.04;100.00
32298;BME280;18782;48.984;8.548;2023-04-26T03:21:37;100064.38;;;7.03;100.00
32298;BME280;18782;48.984;8.548;2023-04-26T03:24:05;100064.41;;;7.04;100.00
32298;BME280;18782;48.984;8.548;2023-04-26T03:26:33;100069.69;;;7.07;100.00
32298;BME280;18782;48.984;8.548;2023-04-26T03:29:01;100066.94;;;7.03;100.00
32298;BME280;18782;48.984;8.548;2023-04-26T03:31:29;100064.28;;;7.00;100.00
32298;BME280;18782;48.984;8.548;2023-04-26T03:33:57;100058.97;;;6.95;100.00
32298;BME280;18782;48.984;8.548;2023-04-26T03:36:26;100065.69;;;6.93;100.00
32298;BME280;18782;48.984;8.548;2023-04-26T03:38:55;100070.78;;;6.93;100.00
32298;BME280;18782;48.984;8.548;2023-04-26T03:41:23;100071.66;;;6.94;100.00
32298;BME280;18782;48.984;8.548;2023-04-26T03:43:53;100075.13;;;6.94;100.00
32298;BME280;18782;48.984;8.548;2023-04-26T03:46:20;100076.06;;;6.96;100.00
32298;BME280;18782;48.984;8.548;2023-04-26T03:48:48;100081.91;;;6.94;100.00
32298;BME280;18782;48.984;8.548;2023-04-26T03:51:17;100080.16;;;6.93;100.00
32298;BME280;18782;48.984;8.548;2023-04-26T03:53:46;100070.13;;;6.97;100.00
32298;BME280;18782;48.984;8.548;2023-04-26T03:56:14;100076.06;;;6.96;100.00
32298;BME280;18782;48.984;8.548;2023-04-26T03:58:42;100067.56;;;6.97;100.00
32298;BME280;18782;48.984;8.548;2023-04-26T04:01:10;100062.19;;;6.91;100.00
32298;BME280;18782;48.984;8.548;2023-04-26T04:03:37;100065.56;;;6.90;100.00
32298;BME280;18782;48.984;8.548;2023-04-26T04:06:07;100056.94;;;6.88;100.00
32298;BME280;18782;48.984;8.548;2023-04-26T04:08:35;100057.75;;;6.87;100.00
32298;BME280;18782;48.984;8.548;2023-04-26T04:11:05;100063.69;;;6.86;99.55
32298;BME280;18782;48.984;8.548;2023-04-26T04:13:35;100061.09;;;6.85;99.08
32298;BME280;18782;48.984;8.548;2023-04-26T04:16:03;100056.69;;;6.82;99.82
32298;BME280;18782;48.984;8.548;2023-04-26T04:18:32;100064.94;;;6.75;99.06
32298;BME280;18782;48.984;8.548;2023-04-26T04:20:59;100071.66;;;6.73;99.88
32298;BME280;18782;48.984;8.548;2023-04-26T04:23:27;100072.63;;;6.75;99.48
32298;BME280;18782;48.984;8.548;2023-04-26T04:25:55;100073.44;;;6.74;99.33
32298;BME280;18782;48.984;8.548;2023-04-26T04:28:24;100067.34;;;6.72;98.37
32298;BME280;18782;48.984;8.548;2023-04-26T04:30:55;100062.25;;;6.72;98.13
32298;BME280;18782;48.984;8.548;2023-04-26T04:33:23;100072.47;;;6.72;98.79
32298;BME280;18782;48.984;8.548;2023-04-26T04:35:55;100078.56;;;6.54;97.10
32298;BME280;18782;48.984;8.548;2023-04-26T04:38:22;100074.81;;;6.46;98.34
32298;BME280;18782;48.984;8.548;2023-04-26T04:40:51;100073.88;;;6.44;98.65
32298;BME280;18782;48.984;8.548;2023-04-26T04:43:19;100082.63;;;6.49;98.84
32298;BME280;18782;48.984;8.548;2023-04-26T04:45:48;100077.50;;;6.49;98.86
32298;BME280;18782;48.984;8.548;2023-04-26T04:48:16;100091.38;;;6.54;98.25
32298;BME280;18782;48.984;8.548;2023-04-26T04:50:48;100092.09;;;6.52;98.37
32298;BME280;18782;48.984;8.548;2023-04-26T04:53:16;100092.69;;;6.46;98.46
32298;BME280;18782;48.984;8.548;2023-04-26T04:55:44;100089.88;;;6.40;97.60
32298;BME280;18782;48.984;8.548;2023-04-26T04:58:14;100091.72;;;6.43;98.27
32298;BME280;18782;48.984;8.548;2023-04-26T05:00:43;100097.19;;;6.52;96.26
32298;BME280;18782;48.984;8.548;2023-04-26T05:03:19;100098.22;;;6.56;96.97
32298;BME280;18782;48.984;8.548;2023-04-26T05:05:47;100099.22;;;6.59;96.90
32298;BME280;18782;48.984;8.548;2023-04-26T05:08:15;100094.75;;;6.53;95.24
32298;BME280;18782;48.984;8.548;2023-04-26T05:10:44;100103.34;;;6.56;96.45
32298;BME280;18782;48.984;8.548;2023-04-26T05:13:11;100102.66;;;6.60;96.77
32298;BME280;18782;48.984;8.548;2023-04-26T05:15:39;100108.59;;;6.59;97.18
32298;BME280;18782;48.984;8.548;2023-04-26T05:18:06;100106.41;;;6.68;97.39
32298;BME280;18782;48.984;8.548;2023-04-26T05:20:36;100116.22;;;6.78;96.69
32298;BME280;18782;48.984;8.548;2023-04-26T05:23:03;100112.16;;;6.83;96.61
32298;BME280;18782;48.984;8.548;2023-04-26T05:25:35;100113.34;;;6.70;96.13
32298;BME280;18782;48.984;8.548;2023-04-26T05:28:20;100115.03;;;6.70;97.42
32298;BME280;18782;48.984;8.548;2023-04-26T05:31:16;100122.81;;;6.73;97.25
32298;BME280;18782;48.984;8.548;2023-04-26T05:33:56;100125.28;;;6.50;96.89
32298;BME280;18782;48.984;8.548;2023-04-26T05:36:36;100125.94;;;6.46;97.73
32298;BME280;18782;48.984;8.548;2023-04-26T05:39:03;100127.84;;;6.50;97.46
32298;BME280;18782;48.984;8.548;2023-04-26T05:41:32;100125.84;;;6.43;96.53
32298;BME280;18782;48.984;8.548;2023-04-26T05:44:00;100123.28;;;6.43;98.20
32298;BME280;18782;48.984;8.548;2023-04-26T05:46:27;100123.00;;;6.37;98.27
32298;BME280;18782;48.984;8.548;2023-04-26T05:48:55;100123.38;;;6.46;98.04
32298;BME280;18782;48.984;8.548;2023-04-26T05:51:23;100125.06;;;6.65;98.63
32298;BME280;18782;48.984;8.548;2023-04-26T05:53:53;100124.41;;;6.69;97.89
32298;BME280;18782;48.984;8.548;2023-04-26T05:56:21;100125.47;;;6.74;97.30
32298;BME280;18782;48.984;8.548;2023-04-26T05:58:49;100126.59;;;6.81;97.18
32298;BME280;18782;48.984;8.548;2023-04-26T06:01:18;100129.00;;;6.78;96.83
32298;BME280;18782;48.984;8.548;2023-04-26T06:03:46;100135.97;;;6.80;95.67
32298;BME280;18782;48.984;8.548;2023-04-26T06:06:17;100125.09;;;6.86;96.34
32298;BME280;18782;48.984;8.548;2023-04-26T06:08:47;100138.72;;;6.85;94.97
32298;BME280;18782;48.984;8.548;2023-04-26T06:11:16;100150.28;;;6.96;94.68
32298;BME280;18782;48.984;8.548;2023-04-26T06:13:43;100145.81;;;6.92;94.05
32298;BME280;18782;48.984;8.548;2023-04-26T06:16:11;100154.00;;;7.04;94.00
32298;BME280;18782;48.984;8.548;2023-04-26T06:18:38;100147.47;;;7.11;94.53
32298;BME280;18782;48.984;8.548;2023-04-26T06:21:06;100153.59;;;7.15;94.82
32298;BME280;18782;48.984;8.548;2023-04-26T06:23:35;100158.16;;;7.22;94.77
32298;BME280;18782;48.984;8.548;2023-04-26T06:26:02;100152.72;;;7.35;94.08
32298;BME280;18782;48.984;8.548;2023-04-26T06:28:31;100151.34;;;7.43;92.55
32298;BME280;18782;48.984;8.548;2023-04-26T06:30:59;100148.22;;;7.50;92.76
32298;BME280;18782;48.984;8.548;2023-04-26T06:33:27;100148.44;;;7.56;88.98
32298;BME280;18782;48.984;8.548;2023-04-26T06:35:56;100150.69;;;7.70;88.69
32298;BME280;18782;48.984;8.548;2023-04-26T06:38:24;100147.94;;;7.65;88.70
32298;BME280;18782;48.984;8.548;2023-04-26T06:40:51;100148.31;;;7.74;89.93
32298;BME280;18782;48.984;8.548;2023-04-26T06:43:19;100149.31;;;7.78;87.10
32298;BME280;18782;48.984;8.548;2023-04-26T06:45:57;100148.81;;;7.88;86.37
32298;BME280;18782;48.984;8.548;2023-04-26T06:48:24;100143.47;;;7.82;84.24
32298;BME280;18782;48.984;8.548;2023-04-26T06:50:52;100141.13;;;7.88;84.36
32298;BME280;18782;48.984;8.548;2023-04-26T06:53:21;100141.22;;;7.90;85.29
32298;BME280;18782;48.984;8.548;2023-04-26T06:55:48;100141.25;;;7.91;85.75
32298;BME280;18782;48.984;8.548;2023-04-26T06:58:18;100149.31;;;8.00;86.26
32298;BME280;18782;48.984;8.548;2023-04-26T07:00:46;100142.28;;;8.19;85.62
32298;BME280;18782;48.984;8.548;2023-04-26T07:03:17;100138.94;;;8.20;85.83
32298;BME280;18782;48.984;8.548;2023-04-26T07:05:45;100138.09;;;8.21;86.42
32298;BME280;18782;48.984;8.548;2023-04-26T07:08:12;100143.47;;;8.27;86.39
32298;BME280;18782;48.984;8.548;2023-04-26T07:10:40;100135.97;;;8.33;83.79
32298;BME280;18782;48.984;8.548;2023-04-26T07:13:07;100126.75;;;8.36;82.43
32298;BME280;18782;48.984;8.548;2023-04-26T07:15:35;100127.28;;;8.29;79.04
32298;BME280;18782;48.984;8.548;2023-04-26T07:18:03;100122.91;;;8.25;80.20
32298;BME280;18782;48.984;8.548;2023-04-26T07:20:32;100120.38;;;8.27;79.76
32298;BME280;18782;48.984;8.548;2023-04-26T07:22:59;100123.75;;;8.26;79.94
32298;BME280;18782;48.984;8.548;2023-04-26T07:25:27;100125.59;;;8.30;80.09
32298;BME280;18782;48.984;8.548;2023-04-26T07:27:54;100124.22;;;8.38;78.96
32298;BME280;18782;48.984;8.548;2023-04-26T07:30:22;100116.97;;;8.50;76.41
32298;BME280;18782;48.984;8.548;2023-04-26T07:32:50;100112.78;;;8.52;75.89
32298;BME280;18782;48.984;8.548;2023-04-26T07:35:18;100116.47;;;8.60;76.05
32298;BME280;18782;48.984;8.548;2023-04-26T07:37:47;100115.13;;;8.72;78.23
32298;BME280;18782;48.984;8.548;2023-04-26T07:40:15;100123.88;;;8.77;75.61
32298;BME280;18782;48.984;8.548;2023-04-26T07:42:44;100128.47;;;8.85;76.68
32298;BME280;18782;48.984;8.548;2023-04-26T07:45:11;100126.91;;;8.91;74.61
32298;BME280;18782;48.984;8.548;2023-04-26T07:47:39;100122.81;;;8.96;73.43
32298;BME280;18782;48.984;8.548;2023-04-26T07:50:08;100122.25;;;9.04;73.78
32298;BME280;18782;48.984;8.548;2023-04-26T07:52:36;100121.53;;;9.08;71.97
32298;BME280;18782;48.984;8.548;2023-04-26T07:55:06;100120.78;;;9.12;72.93
32298;BME280;18782;48.984;8.548;2023-04-26T07:57:34;100124.53;;;9.22;74.02
32298;BME280;18782;48.984;8.548;2023-04-26T08:00:04;100115.59;;;9.36;74.75
32298;BME280;18782;48.984;8.548;2023-04-26T08:02:37;100122.81;;;9.48;74.18
32298;BME280;18782;48.984;8.548;2023-04-26T08:05:16;100131.47;;;9.50;69.18
32298;BME280;18782;48.984;8.548;2023-04-26T08:07:44;100124.78;;;9.55;68.50
32298;BME280;18782;48.984;8.548;2023-04-26T08:10:13;100123.53;;;9.44;66.10
32298;BME280;18782;48.984;8.548;2023-04-26T08:12:40;100122.06;;;9.51;68.52
32298;BME280;18782;48.984;8.548;2023-04-26T08:15:09;100120.00;;;9.67;70.80
32298;BME280;18782;48.984;8.548;2023-04-26T08:17:37;100116.88;;;9.78;69.80
32298;BME280;18782;48.984;8.548;2023-04-26T08:20:06;100127.44;;;9.87;64.72
32298;BME280;18782;48.984;8.548;2023-04-26T08:22:35;100118.34;;;9.98;64.39
32298;BME280;18782;48.984;8.548;2023-04-26T08:25:03;100124.84;;;10.15;64.46
32298;BME280;18782;48.984;8.548;2023-04-26T08:27:33;100129.28;;;10.21;63.06
32298;BME280;18782;48.984;8.548;2023-04-26T08:30:01;100133.56;;;10.20;60.02
32298;BME280;18782;48.984;8.548;2023-04-26T08:32:29;100123.66;;;10.33;59.82
32298;BME280;18782;48.984;8.548;2023-04-26T08:34:56;100123.16;;;10.44;62.08
32298;BME280;18782;48.984;8.548;2023-04-26T08:37:24;100119.88;;;10.50;62.96
32298;BME280;18782;48.984;8.548;2023-04-26T08:39:54;100124.50;;;10.63;60.81
32298;BME280;18782;48.984;8.548;2023-04-26T08:42:25;100122.78;;;10.64;60.11
32298;BME280;18782;48.984;8.548;2023-04-26T08:44:56;100123.03;;;10.73;58.68
32298;BME280;18782;48.984;8.548;2023-04-26T08:47:28;100113.97;;;10.86;59.07
32298;BME280;18782;48.984;8.548;2023-04-26T08:50:03;100117.34;;;11.18;60.60
32298;BME280;18782;48.984;8.548;2023-04-26T08:52:31;100119.47;;;11.36;57.06
32298;BME280;18782;48.984;8.548;2023-04-26T08:54:59;100115.56;;;11.53;57.37
32298;BME280;18782;48.984;8.548;2023-04-26T08:57:31;100110.94;;;11.74;56.48
32298;BME280;18782;48.984;8.548;2023-04-26T09:00:00;100108.63;;;11.85;55.00
32298;BME280;18782;48.984;8.548;2023-04-26T09:02:31;100109.03;;;12.05;55.01
32298;BME280;18782;48.984;8.548;2023-04-26T09:04:59;100112.28;;;12.37;56.26
32298;BME280;18782;48.984;8.548;2023-04-26T09:07:30;100104.88;;;12.54;51.55
32298;BME280;18782;48.984;8.548;2023-04-26T09:09:59;100112.56;;;12.52;51.63
32298;BME280;18782;48.984;8.548;2023-04-26T09:12:27;100105.19;;;12.72;54.05
32298;BME280;18782;48.984;8.548;2023-04-26T09:14:54;100096.94;;;12.92;54.89
32298;BME280;18782;48.984;8.548;2023-04-26T09:17:31;100101.53;;;13.10;52.29
32298;BME280;18782;48.984;8.548;2023-04-26T09:20:00;100099.19;;;13.22;51.44
32298;BME280;18782;48.984;8.548;2023-04-26T09:22:34;100095.09;;;13.36;53.57
32298;BME280;18782;48.984;8.548;2023-04-26T09:25:03;100100.41;;;13.44;52.41
32298;BME280;18782;48.984;8.548;2023-04-26T09:27:34;100107.38;;;13.48;48.53
32298;BME280;18782;48.984;8.548;2023-04-26T09:30:05;100096.69;;;13.26;49.67
32298;BME280;18782;48.984;8.548;2023-04-26T09:32:45;100086.63;;;13.46;52.38
32298;BME280;18782;48.984;8.548;2023-04-26T09:35:27;100088.41;;;13.47;51.78
32298;BME280;18782;48.984;8.548;2023-04-26T09:37:57;100096.09;;;13.44;50.11
32298;BME280;18782;48.984;8.548;2023-04-26T09:40:35;100087.63;;;13.56;49.89
32298;BME280;18782;48.984;8.548;2023-04-26T09:43:05;100089.56;;;13.69;49.17
32298;BME280;18782;48.984;8.548;2023-04-26T09:45:43;100086.94;;;13.66;46.57
32298;BME280;18782;48.984;8.548;2023-04-26T09:48:13;100091.38;;;13.76;48.15
32298;BME280;18782;48.984;8.548;2023-04-26T09:50:42;100085.63;;;13.96;47.31
32298;BME280;18782;48.984;8.548;2023-04-26T09:53:11;100090.00;;;14.00;47.00
32298;BME280;18782;48.984;8.548;2023-04-26T09:55:50;100077.56;;;13.74;44.02
32298;BME280;18782;48.984;8.548;2023-04-26T09:58:18;100080.31;;;13.88;46.70
32298;BME280;18782;48.984;8.548;2023-04-26T10:00:48;100082.47;;;14.21;47.86
32298;BME280;18782;48.984;8.548;2023-04-26T10:03:18;100083.53;;;14.39;46.33
32298;BME280;18782;48.984;8.548;2023-04-26T10:05:46;100078.63;;;14.60;45.13
32298;BME280;18782;48.984;8.548;2023-04-26T10:08:14;100083.78;;;14.60;44.45
32298;BME280;18782;48.984;8.548;2023-04-26T10:10:42;100080.41;;;14.66;43.98
32298;BME280;18782;48.984;8.548;2023-04-26T10:13:11;100082.31;;;14.86;44.94
32298;BME280;18782;48.984;8.548;2023-04-26T10:15:40;100084.06;;;14.87;44.13
32298;BME280;18782;48.984;8.548;2023-04-26T10:18:08;100075.44;;;14.88;43.48
32298;BME280;18782;48.984;8.548;2023-04-26T10:20:40;100076.38;;;14.97;43.08
32298;BME280;18782;48.984;8.548;2023-04-26T10:23:14;100069.69;;;15.25;42.39
32298;BME280;18782;48.984;8.548;2023-04-26T10:25:45;100063.81;;;15.52;42.41
32298;BME280;18782;48.984;8.548;2023-04-26T10:28:14;100069.09;;;15.61;41.75
32298;BME280;18782;48.984;8.548;2023-04-26T10:30:55;100059.72;;;15.89;42.10
32298;BME280;18782;48.984;8.548;2023-04-26T10:33:23;100069.91;;;15.57;40.20
32298;BME280;18782;48.984;8.548;2023-04-26T10:36:11;100058.81;;;15.79;42.02
32298;BME280;18782;48.984;8.548;2023-04-26T10:38:40;100069.34;;;16.13;43.07
32298;BME280;18782;48.984;8.548;2023-04-26T10:41:29;100063.34;;;16.26;40.86
32298;BME280;18782;48.984;8.548;2023-04-26T10:43:59;100058.19;;;16.46;40.26
32298;BME280;18782;48.984;8.548;2023-04-26T10:46:37;100057.22;;;16.03;38.85
32298;BME280;18782;48.984;8.548;2023-04-26T10:49:13;100061.56;;;16.16;39.34
32298;BME280;18782;48.984;8.548;2023-04-26T10:52:10;100059.03;;;16.43;40.52
32298;BME280;18782;48.984;8.548;2023-04-26T10:54:49;100052.13;;;16.36;38.19
32298;BME280;18782;48.984;8.548;2023-04-26T10:57:18;100048.59;;;16.19;38.52
32298;BME280;18782;48.984;8.548;2023-04-26T11:00:19;100044.34;;;16.41;40.94
32298;BME280;18782;48.984;8.548;2023-04-26T11:02:55;100040.09;;;16.72;38.77
32298;BME280;18782;48.984;8.548;2023-04-26T11:05:35;100036.63;;;16.76;38.99
32298;BME280;18782;48.984;8.548;2023-04-26T11:08:06;100034.03;;;16.88;39.50
32298;BME280;18782;48.984;8.548;2023-04-26T11:10:38;100033.13;;;17.26;38.56
32298;BME280;18782;48.984;8.548;2023-04-26T11:13:06;100017.50;;;17.35;38.05
32298;BME280;18782;48.984;8.548;2023-04-26T11:15:37;100013.13;;;17.53;38.74
32298;BME280;18782;48.984;8.548;2023-04-26T11:18:04;100014.84;;;17.57;37.00
32298;BME280;18782;48.984;8.548;2023-04-26T11:20:33;100007.13;;;17.26;35.11
32298;BME280;18782;48.984;8.548;2023-04-26T11:23:01;100015.78;;;16.61;35.59
32298;BME280;18782;48.984;8.548;2023-04-26T11:25:30;100006.19;;;16.18;37.07
32298;BME280;18782;48.984;8.548;2023-04-26T11:27:58;100001.03;;;16.54;38.94
32298;BME280;18782;48.984;8.548;2023-04-26T11:30:28;99995.84;;;17.12;38.79
32298;BME280;18782;48.984;8.548;2023-04-26T11:32:57;99994.84;;;17.69;36.37
32298;BME280;18782;48.984;8.548;2023-04-26T11:35:26;99991.38;;;17.69;36.16
32298;BME280;18782;48.984;8.548;2023-04-26T11:37:57;99984.34;;;17.95;34.37
32298;BME280;18782;48.984;8.548;2023-04-26T11:40:31;99989.69;;;17.65;33.78
32298;BME280;18782;48.984;8.548;2023-04-26T11:43:00;99989.69;;;17.56;37.29
32298;BME280;18782;48.984;8.548;2023-04-26T11:45:30;99979.31;;;17.42;35.14
32298;BME280;18782;48.984;8.548;2023-04-26T11:48:03;99968.97;;;17.22;34.38
32298;BME280;18782;48.984;8.548;2023-04-26T11:50:32;99979.38;;;17.16;36.30
32298;BME280;18782;48.984;8.548;2023-04-26T11:53:01;99975.88;;;17.35;37.56
32298;BME280;18782;48.984;8.548;2023-04-26T11:55:32;99977.56;;;17.48;35.15
32298;BME280;18782;48.984;8.548;2023-04-26T11:58:09;99972.34;;;17.52;35.18
32298;BME280;18782;48.984;8.548;2023-04-26T12:00:36;99971.53;;;17.33;35.63
32298;BME280;18782;48.984;8.548;2023-04-26T12:03:05;99981.94;;;17.42;34.81
32298;BME280;18782;48.984;8.548;2023-04-26T12:05:37;99968.94;;;17.40;35.03
32298;BME280;18782;48.984;8.548;2023-04-26T12:08:09;99984.59;;;16.58;34.65
32298;BME280;18782;48.984;8.548;2023-04-26T12:10:38;99987.19;;;16.59;36.97
32298;BME280;18782;48.984;8.548;2023-04-26T12:13:05;99985.44;;;16.35;36.56
32298;BME280;18782;48.984;8.548;2023-04-26T12:15:33;99981.97;;;16.35;36.37
32298;BME280;18782;48.984;8.548;2023-04-26T12:18:05;99977.56;;;16.02;37.10
32298;BME280;18782;48.984;8.548;2023-04-26T12:20:35;99973.28;;;16.22;36.06
32298;BME280;18782;48.984;8.548;2023-04-26T12:23:04;99967.25;;;17.16;36.85
32298;BME280;18782;48.984;8.548;2023-04-26T12:25:34;99967.78;;;18.10;37.39
32298;BME280;18782;48.984;8.548;2023-04-26T12:28:05;99971.72;;;18.72;35.27
32298;BME280;18782;48.984;8.548;2023-04-26T12:30:38;99963.88;;;18.75;32.74
32298;BME280;18782;48.984;8.548;2023-04-26T12:33:06;99960.13;;;19.06;32.74
32298;BME280;18782;48.984;8.548;2023-04-26T12:35:43;99958.66;;;18.72;32.64
32298;BME280;18782;48.984;8.548;2023-04-26T12:38:11;99964.94;;;18.42;32.35
32298;BME280;18782;48.984;8.548;2023-04-26T12:40:40;99966.19;;;19.04;31.55
32298;BME280;18782;48.984;8.548;2023-04-26T12:43:13;99960.91;;;19.14;33.12
32298;BME280;18782;48.984;8.548;2023-04-26T12:45:44;99958.31;;;19.89;31.50
32298;BME280;18782;48.984;8.548;2023-04-26T12:48:15;99957.06;;;19.45;31.49
32298;BME280;18782;48.984;8.548;2023-04-26T12:50:44;99952.19;;;19.15;31.36
32298;BME280;18782;48.984;8.548;2023-04-26T12:53:12;99949.47;;;19.24;31.42
32298;BME280;18782;48.984;8.548;2023-04-26T12:55:40;99952.69;;;18.60;32.50
32298;BME280;18782;48.984;8.548;2023-04-26T12:58:08;99954.44;;;18.55;32.35
32298;BME280;18782;48.984;8.548;2023-04-26T13:00:40;99949.56;;;19.15;31.39
32298;BME280;18782;48.984;8.548;2023-04-26T13:03:10;99950.03;;;18.61;32.00
32298;BME280;18782;48.984;8.548;2023-04-26T13:05:40;99947.41;;;18.63;32.49
32298;BME280;18782;48.984;8.548;2023-04-26T13:08:08;99950.66;;;18.95;34.14
32298;BME280;18782;48.984;8.548;2023-04-26T13:10:36;99958.13;;;19.29;36.00
32298;BME280;18782;48.984;8.548;2023-04-26T13:13:06;99953.50;;;19.54;33.87